Gustavus, AK

11:14 AM AKDT on August 22, 2014 (GMT -0800)
Gustavus | Change Station
CLOSE
Current Station
Airport
Location: Gustavus,
Elevation: 30 ft
Nearby Weather Stations

Elev 30 ft 58.43 °N, 135.71 °W | Updated 1 hour ago

Overcast
Overcast
59 °F
Feels Like 59 °F
N
6
Wind Variable Wind from SSW

Today
High -- | Low -- °F
--% Chance of Precip.
Yesterday
High -- | Low -- °F
Precip. -- in
5:43 AM 8:36 PM
Waning Crescent, 7% visible
Pressure 30.20 in
Visibility 10.0 miles
Clouds Overcast 1000 ft
Dew Point 52 °F
Humidity 77%
Rainfall 0.00 in
Snow Depth Not available.
UV 1 out of 12
Pollen Not available.
Air Quality Not available.
Flu Activity Not available.
METAR PAGS 221803Z AUTO 20005KT 10SM OVC010 15/11 A3020 RMK VIA PHONE

More Conditions Fewer Conditions

Pressure 30.20 in
Visibility 10.0 miles
Clouds Overcast 1000 ft
Dew Point 52 °F
Humidity 77%
Rainfall 0.00 in
Snow Depth Not available.
UV 1 out of 12
Pollen Not available.
Air Quality Not available.
Flu Activity Not available.
METAR PAGS 221803Z AUTO 20005KT 10SM OVC010 15/11 A3020 RMK VIA PHONE

More Conditions Fewer Conditions

10-Day Weather Forecast

Almanac

Astronomy

Aug. 22, 2014 Rise Set
Actual Time 5:43 AM AKDT 8:36 PM AKDT
Civil Twilight 4:57 AM AKDT 9:21 PM AKDT
Nautical Twilight 3:55 AM AKDT 10:23 PM AKDT
Astronomical Twilight 2:21 AM AKDT 11:52 PM AKDT
Moon 2:56 AM AKDT 7:00 PM AKDT
Length of Visible Light 16h 23m
Length of Day
14h 52m
Tomorrow will be 5m 2s shorter.
Waning Crescent, 7% of the Moon is Illuminated
Today
Waning Crescent
Aug 25
New
Sep 2
First Quarter
Sep 8
Full
Sep 15
Last Quarter

Today's Extremes

State Highs State Lows

Community

WunderPhotos

Upload Photos

1,746,223 photos uploaded!

Nearby

Snow Depth

Station Depth Elevation
Long Lake 0 in 820 ft
Upper Tsaina River 0 in 1750 ft
Moraine 0 in 2100 ft
Grandview 0 in 1100 ft
Grouse Creek Divide 0 in 700 ft

Earthquake Activity

City Distance Mag. Time & Date
No recent earthquake activity has been reported nearby.
Minimum magnitude displayed is 2.5.

Coastal Water Temperatures

Place Temperature
No Stations Reporting

Nearby Weather Stations